Time;durP1;ratioP1;P1;durP2;ratioP2;P2;SDS_P1;SDS_P2;PMS_P1;PMS_P2;Temp;Humidity;BMP_temperature;BMP_pressure;BME280_temperature;BME280_humidity;BME280_pressure;Samples;Min_cycle;Max_cycle;Signal;HPM_P1;HPM_P2
2023/09/04 00:01:46;;;;;;;3.23;2.23;;;;;;;14.14;82.96;102223.16;4978091;28;20794;-75
2023/09/04 00:04:12;;;;;;;2.40;2.20;;;;;;;14.09;83.04;102228.59;4979084;28;20559;-75
2023/09/04 00:06:39;;;;;;;2.60;2.30;;;;;;;14.04;82.94;102226.09;4978259;28;20212;-75
2023/09/04 00:09:05;;;;;;;2.83;2.50;;;;;;;14.00;83.05;102227.78;4978556;28;20242;-75
2023/09/04 00:11:33;;;;;;;3.70;2.00;;;;;;;13.95;83.43;102225.28;4977220;28;20248;-75
2023/09/04 00:13:59;;;;;;;2.70;2.20;;;;;;;13.91;83.90;102224.31;4977192;28;20311;-75
2023/09/04 00:16:26;;;;;;;3.10;2.27;;;;;;;13.86;83.73;102227.13;4977937;28;20811;-75
2023/09/04 00:18:53;;;;;;;2.93;2.47;;;;;;;13.80;84.08;102221.19;4977449;28;20204;-75
2023/09/04 00:21:19;;;;;;;3.00;2.10;;;;;;;13.77;84.03;102231.63;4976224;28;20207;-75
2023/09/04 00:23:46;;;;;;;4.43;2.97;;;;;;;13.72;84.13;102243.16;4977520;28;20304;-75
2023/09/04 00:26:12;;;;;;;2.67;2.30;;;;;;;13.69;84.25;102242.97;4976834;28;20213;-75
2023/09/04 00:28:44;;;;;;;4.37;2.60;;;;;;;13.66;84.34;102248.91;4977946;28;20218;-75
2023/09/04 00:31:10;;;;;;;4.03;2.83;;;;;;;13.62;85.29;102240.75;4978037;28;20211;-75
2023/09/04 00:33:36;;;;;;;2.70;2.50;;;;;;;13.59;85.37;102241.38;4975617;28;20686;-75
2023/09/04 00:36:03;;;;;;;3.97;2.57;;;;;;;13.56;85.69;102239.31;4976689;28;20225;-75
2023/09/04 00:38:33;;;;;;;3.60;2.60;;;;;;;13.53;85.64;102244.47;4973337;28;20360;-75
2023/09/04 00:40:59;;;;;;;5.13;2.40;;;;;;;13.47;85.25;102246.47;4976208;28;20668;-75
2023/09/04 00:43:34;;;;;;;3.33;2.70;;;;;;;13.43;85.26;102258.00;4969654;28;20232;-75
2023/09/04 00:46:03;;;;;;;2.83;2.53;;;;;;;13.40;85.42;102253.31;4977117;28;20211;-75
2023/09/04 00:48:30;;;;;;;6.47;2.60;;;;;;;13.37;85.41;102262.66;4971225;28;20227;-75
2023/09/04 00:50:57;;;;;;;4.23;2.60;;;;;;;13.36;86.17;102263.72;4976566;28;20208;-75
2023/09/04 00:53:24;;;;;;;3.17;2.77;;;;;;;13.34;86.65;102259.78;4977203;28;20201;-75
2023/09/04 00:55:51;;;;;;;4.20;2.60;;;;;;;13.31;86.83;102268.38;4980334;28;20223;-75
2023/09/04 00:58:18;;;;;;;4.03;2.90;;;;;;;13.29;87.14;102273.19;4976116;28;20217;-75
2023/09/04 01:00:44;;;;;;;4.67;3.10;;;;;;;13.25;86.82;102262.41;4978075;28;20583;-75
2023/09/04 01:03:13;;;;;;;4.00;2.70;;;;;;;13.24;86.91;102260.06;4976364;28;20341;-74
2023/09/04 01:05:39;;;;;;;4.10;3.00;;;;;;;13.20;87.03;102253.81;4976815;28;20232;-75
2023/09/04 01:08:06;;;;;;;7.87;2.70;;;;;;;13.16;86.68;102266.88;4994809;28;20698;-75
2023/09/04 01:10:50;;;;;;;4.27;3.27;;;;;;;13.14;86.99;102249.69;4976385;28;21217;-75
2023/09/04 01:13:22;;;;;;;6.33;3.10;;;;;;;13.10;87.00;102240.78;4976958;28;20212;-75
2023/09/04 01:15:52;;;;;;;4.80;3.23;;;;;;;13.06;86.99;102243.25;4975973;28;20208;-75
2023/09/04 01:18:20;;;;;;;3.83;3.07;;;;;;;13.01;87.11;102243.38;4978989;28;20232;-75
2023/09/04 01:21:01;;;;;;;5.50;3.40;;;;;;;12.96;86.76;102240.84;4979428;28;20205;-75
2023/09/04 01:23:27;;;;;;;4.80;3.23;;;;;;;12.95;87.20;102233.91;4977137;28;20224;-75
2023/09/04 01:26:02;;;;;;;5.77;3.10;;;;;;;12.93;87.69;102224.72;4975824;28;20217;-75
2023/09/04 01:28:34;;;;;;;4.77;3.40;;;;;;;12.88;87.21;102232.78;4979281;28;20221;-75
2023/09/04 01:31:05;;;;;;;3.53;3.20;;;;;;;12.87;87.33;102239.94;4980953;28;20288;-75
2023/09/04 01:33:37;;;;;;;4.00;3.23;;;;;;;12.85;87.96;102233.38;4982344;28;20190;-75
2023/09/04 01:36:11;;;;;;;5.20;3.50;;;;;;;12.84;87.59;102226.50;4975733;28;20567;-75
2023/09/04 01:38:39;;;;;;;6.13;4.03;;;;;;;12.81;88.13;102233.19;4980855;28;20217;-75
2023/09/04 01:41:05;;;;;;;4.67;3.67;;;;;;;12.78;87.91;102239.09;4980369;28;20307;-74
2023/09/04 01:43:32;;;;;;;5.30;3.50;;;;;;;12.75;87.80;102245.00;4982048;28;20751;-75
2023/09/04 01:45:58;;;;;;;5.03;3.87;;;;;;;12.73;88.04;102244.50;4978155;28;20204;-75
2023/09/04 01:48:25;;;;;;;4.03;3.10;;;;;;;12.70;87.92;102255.72;4981113;28;20224;-75
2023/09/04 01:50:51;;;;;;;3.53;3.20;;;;;;;12.69;88.25;102256.00;4980835;28;20212;-75
2023/09/04 01:53:19;;;;;;;3.80;3.20;;;;;;;12.67;88.77;102253.66;4983454;28;20201;-75
2023/09/04 01:55:46;;;;;;;3.60;3.20;;;;;;;12.65;88.79;102258.47;4979737;28;20553;-75
2023/09/04 01:58:12;;;;;;;5.30;3.80;;;;;;;12.61;88.53;102260.16;4980318;28;20235;-75
2023/09/04 02:00:38;;;;;;;5.63;3.70;;;;;;;12.59;88.46;102264.19;4981301;28;20591;-75
2023/09/04 02:03:05;;;;;;;5.70;4.00;;;;;;;12.57;88.83;102269.00;4981406;28;20223;-75
2023/09/04 02:05:31;;;;;;;5.30;3.27;;;;;;;12.55;89.13;102264.00;4984466;28;20216;-75
2023/09/04 02:07:57;;;;;;;4.90;3.20;;;;;;;12.54;89.07;102253.69;4981597;28;20231;-75
2023/09/04 02:10:26;;;;;;;4.27;3.13;;;;;;;12.51;88.69;102255.06;4980175;28;20659;-75
2023/09/04 02:12:53;;;;;;;4.40;3.40;;;;;;;12.48;88.33;102258.28;4979099;28;20231;-75
2023/09/04 02:15:19;;;;;;;4.37;2.93;;;;;;;12.46;88.34;102254.38;4986220;28;21818;-75
2023/09/04 02:17:46;;;;;;;4.23;3.40;;;;;;;12.43;88.92;102249.69;4980327;28;20745;-75
2023/09/04 02:20:12;;;;;;;5.53;3.30;;;;;;;12.40;88.74;102253.72;4973971;28;20576;-75
2023/09/04 02:22:39;;;;;;;4.83;3.60;;;;;;;12.39;89.08;102262.75;4981159;28;20303;-75
2023/09/04 02:25:07;;;;;;;4.50;3.53;;;;;;;12.36;89.06;102255.38;4979714;28;20207;-75
2023/09/04 02:27:34;;;;;;;3.53;2.77;;;;;;;12.34;88.93;102254.09;4982109;28;20224;-75
2023/09/04 02:30:03;;;;;;;6.30;3.53;;;;;;;12.31;88.59;102260.00;4981106;28;20207;-75
2023/09/04 02:32:29;;;;;;;4.90;2.87;;;;;;;12.27;89.36;102249.19;4980357;28;20290;-75
2023/09/04 02:34:55;;;;;;;3.43;2.77;;;;;;;12.26;89.16;102257.47;4979289;28;20210;-75
2023/09/04 02:37:22;;;;;;;3.57;3.27;;;;;;;12.24;89.67;102257.75;4995453;28;20224;-75
2023/09/04 02:39:48;;;;;;;3.83;2.90;;;;;;;12.23;90.01;102260.69;4979661;28;20215;-75
2023/09/04 02:42:14;;;;;;;4.23;2.90;;;;;;;12.19;89.47;102265.78;4995657;28;20217;-75
2023/09/04 02:44:42;;;;;;;5.03;3.10;;;;;;;12.17;89.59;102257.34;4980493;28;20238;-75
2023/09/04 02:47:09;;;;;;;4.83;3.30;;;;;;;12.17;89.62;102262.63;4977488;28;20230;-75
2023/09/04 02:49:35;;;;;;;4.20;3.40;;;;;;;12.14;89.79;102265.91;4978681;28;20211;-75
2023/09/04 02:52:01;;;;;;;5.27;3.57;;;;;;;12.13;90.54;102263.53;4978471;28;20215;-75
2023/09/04 02:54:28;;;;;;;4.07;3.47;;;;;;;12.10;89.63;102270.19;4973753;28;21501;-75
2023/09/04 02:56:54;;;;;;;4.30;3.53;;;;;;;12.08;90.04;102267.06;4976115;28;20233;-75
2023/09/04 02:59:21;;;;;;;4.17;3.70;;;;;;;12.09;90.75;102260.69;4975936;28;20227;-75
2023/09/04 03:01:50;;;;;;;4.13;3.17;;;;;;;12.07;90.25;102254.13;4978222;28;20220;-75
2023/09/04 03:04:16;;;;;;;6.37;3.70;;;;;;;12.03;90.24;102259.22;4985797;28;20210;-75
2023/09/04 03:06:43;;;;;;;3.60;3.30;;;;;;;12.02;90.31;102255.03;4979783;28;20221;-74
2023/09/04 03:09:09;;;;;;;4.27;3.50;;;;;;;12.02;90.28;102254.22;4978778;28;20218;-74
2023/09/04 03:11:36;;;;;;;8.27;3.43;;;;;;;11.98;90.40;102269.91;4977387;28;20211;-74
2023/09/04 03:14:02;;;;;;;3.93;3.27;;;;;;;12.00;90.54;102277.56;4982687;28;20215;-74
2023/09/04 03:16:29;;;;;;;4.33;3.70;;;;;;;12.01;90.69;102287.06;4984911;28;20861;-74
2023/09/04 03:18:57;;;;;;;6.07;3.43;;;;;;;12.00;91.33;102286.28;4979981;28;20290;-74
2023/09/04 03:21:23;;;;;;;5.03;4.13;;;;;;;12.03;91.58;102287.56;4977804;28;20217;-74
2023/09/04 03:23:51;;;;;;;5.70;4.10;;;;;;;12.06;91.34;102290.41;4995079;28;20215;-74
2023/09/04 03:26:17;;;;;;;6.43;4.57;;;;;;;12.10;91.96;102283.44;4976413;28;20683;-74
2023/09/04 03:28:44;;;;;;;4.30;3.90;;;;;;;12.13;92.10;102285.53;4978296;28;20259;-74
2023/09/04 03:31:13;;;;;;;5.60;4.67;;;;;;;12.18;91.91;102279.31;4979536;28;20668;-74
2023/09/04 03:33:39;;;;;;;4.70;3.93;;;;;;;12.19;92.28;102272.94;4980563;28;20535;-74
2023/09/04 03:36:07;;;;;;;4.27;3.73;;;;;;;12.22;91.67;102277.66;4981835;28;20572;-74
2023/09/04 03:38:33;;;;;;;4.50;3.77;;;;;;;12.26;91.73;102287.38;4977004;28;20986;-74
2023/09/04 03:40:59;;;;;;;4.60;3.97;;;;;;;12.26;91.70;102284.72;4979084;28;20215;-74
2023/09/04 03:43:28;;;;;;;5.60;4.60;;;;;;;12.30;91.10;102291.00;4978525;28;20700;-74
2023/09/04 03:45:54;;;;;;;5.50;4.07;;;;;;;12.34;91.37;102296.50;4978423;28;20209;-74
2023/09/04 03:48:21;;;;;;;5.27;4.10;;;;;;;12.36;91.84;102289.81;4993261;28;20885;-74
2023/09/04 03:50:47;;;;;;;5.23;3.83;;;;;;;12.38;91.23;102297.47;4978314;28;20437;-74
2023/09/04 03:53:15;;;;;;;6.73;3.90;;;;;;;12.40;91.11;102290.00;4976900;28;20212;-74
2023/09/04 03:55:42;;;;;;;4.63;4.03;;;;;;;12.43;91.13;102300.03;4981957;28;20207;-74
2023/09/04 03:58:08;;;;;;;6.63;3.80;;;;;;;12.47;91.21;102301.78;4976232;28;20239;-74
2023/09/04 04:00:34;;;;;;;5.03;4.00;;;;;;;12.48;90.90;102299.91;4981846;28;20223;-74
2023/09/04 04:03:01;;;;;;;5.77;3.73;;;;;;;12.51;90.98;102307.25;4979522;28;20200;-74
2023/09/04 04:05:29;;;;;;;4.87;3.33;;;;;;;12.52;90.69;102312.28;4970116;28;20669;-74
2023/09/04 04:07:55;;;;;;;4.07;3.60;;;;;;;12.55;90.84;102309.03;4976840;28;20756;-74
2023/09/04 04:10:23;;;;;;;6.33;4.30;;;;;;;12.56;90.66;102299.22;4976931;28;20190;-74
2023/09/04 04:12:52;;;;;;;4.73;3.80;;;;;;;12.58;90.51;102308.44;4978404;28;20220;-74
2023/09/04 04:15:19;;;;;;;8.30;3.80;;;;;;;12.62;90.83;102308.66;4977969;28;20287;-74
2023/09/04 04:17:46;;;;;;;4.73;3.60;;;;;;;12.65;90.97;102313.34;4975296;28;20232;-74
2023/09/04 04:20:15;;;;;;;5.33;3.40;;;;;;;12.70;90.80;102311.38;4976742;28;20219;-74
2023/09/04 04:22:42;;;;;;;5.47;4.17;;;;;;;12.71;91.11;102318.25;4970380;28;20205;-74
2023/09/04 04:25:09;;;;;;;4.67;3.73;;;;;;;12.71;90.78;102317.44;4977187;28;20496;-74
2023/09/04 04:27:38;;;;;;;7.83;3.87;;;;;;;12.72;90.41;102319.00;4984851;28;20233;-75
2023/09/04 04:30:06;;;;;;;4.77;3.77;;;;;;;12.72;90.76;102326.97;4970830;28;20232;-74
2023/09/04 04:32:33;;;;;;;4.10;3.60;;;;;;;12.71;90.82;102320.91;4974691;28;20311;-74
2023/09/04 04:34:59;;;;;;;5.90;3.87;;;;;;;12.71;90.76;102320.09;4977943;28;20230;-74
2023/09/04 04:37:26;;;;;;;3.77;3.17;;;;;;;12.69;90.39;102317.75;4976193;28;20507;-74
2023/09/04 04:39:52;;;;;;;3.90;3.50;;;;;;;12.67;90.26;102314.59;4969772;28;20283;-74
2023/09/04 04:42:19;;;;;;;4.53;3.30;;;;;;;12.67;90.20;102324.41;4976177;28;20208;-74
2023/09/04 04:44:47;;;;;;;5.93;3.57;;;;;;;12.65;90.34;102323.94;4976720;28;20281;-74
2023/09/04 04:47:15;;;;;;;5.57;3.70;;;;;;;12.64;90.54;102330.31;4971858;28;20702;-74
2023/09/04 04:49:43;;;;;;;4.13;3.27;;;;;;;12.62;90.15;102333.25;4978492;28;20289;-74
2023/09/04 04:52:10;;;;;;;4.57;3.43;;;;;;;12.61;90.38;102331.69;4975087;28;21192;-74
2023/09/04 04:54:36;;;;;;;5.10;3.80;;;;;;;12.63;90.62;102339.38;4978417;28;20195;-74
2023/09/04 04:57:03;;;;;;;5.37;3.90;;;;;;;12.63;90.79;102334.84;4975179;28;20230;-74
2023/09/04 04:59:30;;;;;;;4.67;3.90;;;;;;;12.63;91.00;102342.00;4976139;28;20716;-74
2023/09/04 05:02:00;;;;;;;6.53;4.40;;;;;;;12.63;90.63;102345.44;4974538;28;20219;-74
2023/09/04 05:04:26;;;;;;;5.13;4.13;;;;;;;12.63;90.52;102344.66;4977429;28;20759;-74
2023/09/04 05:06:53;;;;;;;7.17;4.30;;;;;;;12.64;90.46;102338.28;4980347;28;20314;-74
2023/09/04 05:09:20;;;;;;;4.60;4.20;;;;;;;12.65;90.28;102340.63;4980199;28;20706;-74
2023/09/04 05:11:47;;;;;;;6.30;4.57;;;;;;;12.70;90.99;102350.34;4979105;28;20547;-74
2023/09/04 05:14:14;;;;;;;6.77;4.53;;;;;;;12.75;91.38;102342.28;4981021;28;20769;-74
2023/09/04 05:16:41;;;;;;;6.67;4.80;;;;;;;12.75;91.53;102337.78;4978863;28;21101;-74
2023/09/04 05:19:09;;;;;;;9.30;4.73;;;;;;;12.79;91.81;102332.66;4979275;28;20205;-75
2023/09/04 05:21:36;;;;;;;5.53;4.80;;;;;;;12.83;91.47;102337.06;4979274;28;20294;-74
2023/09/04 05:24:02;;;;;;;7.33;4.93;;;;;;;12.86;91.52;102333.84;4978073;28;20620;-74
2023/09/04 05:26:28;;;;;;;8.03;5.90;;;;;;;12.90;91.05;102337.47;4978440;28;20271;-74
2023/09/04 05:28:55;;;;;;;6.60;5.30;;;;;;;12.95;91.01;102344.50;4979721;28;20212;-74
2023/09/04 05:31:21;;;;;;;6.43;5.27;;;;;;;12.99;90.62;102350.81;4978576;28;20220;-74
2023/09/04 05:33:47;;;;;;;9.30;5.63;;;;;;;13.04;90.67;102342.75;4979633;28;20208;-74
2023/09/04 05:36:15;;;;;;;9.00;5.80;;;;;;;13.08;90.63;102347.16;4983515;28;20213;-74
2023/09/04 05:38:42;;;;;;;6.07;5.07;;;;;;;13.13;90.69;102347.03;4980901;28;20243;-74
2023/09/04 05:41:09;;;;;;;7.70;5.70;;;;;;;13.16;90.53;102343.81;4979013;28;20213;-74
2023/09/04 05:43:35;;;;;;;10.93;6.17;;;;;;;13.20;90.39;102344.00;4981346;28;20194;-74
2023/09/04 05:46:01;;;;;;;11.30;5.73;;;;;;;13.23;90.15;102351.31;4980122;28;20211;-74
2023/09/04 05:48:28;;;;;;;9.03;5.53;;;;;;;13.25;89.98;102359.78;4979897;28;20226;-74
2023/09/04 05:50:55;;;;;;;6.03;5.33;;;;;;;13.27;89.91;102363.72;4981660;28;20196;-74
2023/09/04 05:53:24;;;;;;;5.73;5.13;;;;;;;13.31;90.06;102364.66;4979076;28;20213;-74
2023/09/04 05:56:04;;;;;;;6.03;4.90;;;;;;;13.36;90.22;102363.78;4977782;28;20213;-74
2023/09/04 05:58:30;;;;;;;7.63;5.57;;;;;;;13.39;90.29;102361.31;4979190;28;20245;-74
2023/09/04 06:00:57;;;;;;;6.93;4.70;;;;;;;13.45;90.28;102359.34;4979523;28;20217;-74
2023/09/04 06:03:24;;;;;;;7.90;6.10;;;;;;;13.49;90.14;102362.94;4978314;28;20703;-74
2023/09/04 06:05:50;;;;;;;9.57;5.90;;;;;;;13.53;89.71;102372.66;4978652;28;20228;-74
2023/09/04 06:08:18;;;;;;;7.83;5.57;;;;;;;13.59;89.21;102383.91;4979730;28;20232;-74
2023/09/04 06:10:45;;;;;;;8.33;6.10;;;;;;;13.65;89.40;102372.88;4977490;28;20219;-74
2023/09/04 06:13:12;;;;;;;6.60;5.93;;;;;;;13.71;89.02;102374.34;4979063;28;20223;-74
2023/09/04 06:15:38;;;;;;;7.33;6.30;;;;;;;13.78;89.13;102366.75;4992197;28;20630;-74
2023/09/04 06:18:05;;;;;;;7.00;6.27;;;;;;;13.86;88.70;102367.84;4978240;28;20284;-74
2023/09/04 06:20:31;;;;;;;8.80;5.67;;;;;;;13.94;89.08;102361.81;4978991;28;20215;-74
2023/09/04 06:22:58;;;;;;;7.13;6.07;;;;;;;14.01;88.89;102365.63;4976871;28;20215;-74
2023/09/04 06:25:24;;;;;;;8.40;6.03;;;;;;;14.08;88.18;102357.97;4975457;28;20215;-74
2023/09/04 06:27:52;;;;;;;7.60;5.87;;;;;;;14.17;88.14;102361.47;4977570;28;20225;-74
2023/09/04 06:30:18;;;;;;;8.37;5.33;;;;;;;14.26;88.08;102350.91;4975042;28;20583;-74
2023/09/04 06:32:45;;;;;;;5.93;5.30;;;;;;;14.35;87.70;102354.38;4975850;28;20205;-74
2023/09/04 06:35:11;;;;;;;6.53;5.70;;;;;;;14.44;87.22;102355.97;4974621;28;20228;-74
2023/09/04 06:37:38;;;;;;;10.27;6.00;;;;;;;14.51;86.67;102353.66;4975995;28;20233;-74
2023/09/04 06:40:05;;;;;;;10.27;6.17;;;;;;;14.62;87.00;102356.81;4974643;28;20209;-74
2023/09/04 06:42:31;;;;;;;5.90;5.30;;;;;;;14.70;86.74;102358.72;4976387;28;20635;-75
2023/09/04 06:44:59;;;;;;;5.73;5.13;;;;;;;14.78;86.30;102357.94;4974580;28;20604;-74
2023/09/04 06:47:25;;;;;;;6.57;5.57;;;;;;;14.86;86.05;102363.25;4975523;28;20225;-74
2023/09/04 06:49:51;;;;;;;9.77;5.57;;;;;;;14.96;85.22;102354.22;4974457;28;20227;-74
2023/09/04 06:52:18;;;;;;;5.27;4.77;;;;;;;15.03;85.14;102355.31;4975389;28;20209;-74
2023/09/04 06:54:44;;;;;;;6.03;4.70;;;;;;;15.11;84.63;102353.78;4974424;28;20222;-74
2023/09/04 06:57:10;;;;;;;7.17;4.90;;;;;;;15.19;84.46;102348.44;4973530;28;20241;-74
2023/09/04 06:59:37;;;;;;;5.73;5.10;;;;;;;15.29;83.70;102340.16;4974285;28;20589;-75
2023/09/04 07:02:05;;;;;;;5.77;4.90;;;;;;;15.38;83.81;102334.84;4974683;28;20222;-74
2023/09/04 07:04:31;;;;;;;5.63;5.03;;;;;;;15.45;84.01;102333.28;4971854;28;20225;-74
2023/09/04 07:06:57;;;;;;;5.57;4.43;;;;;;;15.54;83.75;102330.59;4972098;28;20239;-74
2023/09/04 07:09:24;;;;;;;5.57;4.97;;;;;;;15.63;83.33;102331.38;4972601;28;20236;-74
2023/09/04 07:11:50;;;;;;;7.13;4.30;;;;;;;15.71;83.38;102334.00;4973415;28;20216;-74
2023/09/04 07:14:16;;;;;;;6.80;5.07;;;;;;;15.79;83.26;102341.19;4973547;28;20227;-75
2023/09/04 07:16:43;;;;;;;7.17;5.30;;;;;;;15.89;82.91;102335.50;4972239;28;20201;-74
2023/09/04 07:19:10;;;;;;;4.67;4.13;;;;;;;16.00;82.69;102335.97;4972566;28;20219;-74
2023/09/04 07:21:37;;;;;;;4.10;3.50;;;;;;;16.07;82.31;102329.03;4971728;28;20205;-74
2023/09/04 07:24:04;;;;;;;7.47;4.37;;;;;;;16.17;82.15;102335.88;4970588;28;21218;-74
2023/09/04 07:26:30;;;;;;;4.20;3.80;;;;;;;16.26;82.46;102333.97;4971108;28;20201;-74
2023/09/04 07:28:57;;;;;;;4.53;3.83;;;;;;;16.35;82.11;102330.16;4970378;28;20218;-75
2023/09/04 07:31:23;;;;;;;7.07;3.23;;;;;;;16.45;80.92;102343.16;4970726;28;20212;-74
2023/09/04 07:33:51;;;;;;;3.27;2.80;;;;;;;16.55;79.43;102339.34;4970805;28;20212;-74
2023/09/04 07:36:18;;;;;;;3.10;2.80;;;;;;;16.65;78.15;102344.28;4969667;28;20207;-74
2023/09/04 07:38:46;;;;;;;4.67;2.90;;;;;;;16.74;78.97;102347.69;4969581;28;20431;-74
2023/09/04 07:41:12;;;;;;;4.00;3.33;;;;;;;16.86;78.57;102345.88;4970255;28;20201;-74
2023/09/04 07:43:39;;;;;;;2.70;2.50;;;;;;;16.97;77.95;102346.28;4969075;28;20205;-74
2023/09/04 07:46:05;;;;;;;4.50;2.77;;;;;;;17.08;77.80;102342.13;4968965;28;20229;-74
2023/09/04 07:48:33;;;;;;;2.50;2.30;;;;;;;17.21;77.08;102338.38;4969670;28;20225;-75
2023/09/04 07:51:00;;;;;;;2.77;2.57;;;;;;;17.31;76.31;102349.47;4968245;28;20201;-75
2023/09/04 07:53:28;;;;;;;3.60;2.63;;;;;;;17.41;76.71;102348.31;4968623;28;20787;-74
2023/09/04 07:55:54;;;;;;;3.17;2.50;;;;;;;17.54;75.97;102347.25;4968057;28;20209;-74
2023/09/04 07:58:20;;;;;;;3.13;2.60;;;;;;;17.63;75.91;102351.38;4969056;28;20221;-74
2023/09/04 08:00:48;;;;;;;3.47;2.73;;;;;;;17.72;74.12;102353.97;4968535;28;20221;-74
2023/09/04 08:03:14;;;;;;;2.67;2.47;;;;;;;17.82;74.64;102351.66;4968555;28;20225;-74
2023/09/04 08:05:41;;;;;;;4.07;2.57;;;;;;;17.93;73.23;102362.69;4967057;28;20602;-75
2023/09/04 08:08:09;;;;;;;2.50;2.30;;;;;;;18.03;72.75;102355.03;4967699;28;20232;-75
2023/09/04 08:10:39;;;;;;;4.83;3.07;;;;;;;18.11;74.29;102353.38;4968317;28;20388;-75
2023/09/04 08:13:06;;;;;;;4.03;3.10;;;;;;;18.21;74.04;102356.38;4967830;28;20221;-75
2023/09/04 08:15:33;;;;;;;2.80;2.50;;;;;;;18.33;73.48;102352.97;4966127;28;20281;-75
2023/09/04 08:17:59;;;;;;;4.63;3.03;;;;;;;18.47;71.26;102359.53;4967091;28;20654;-75
2023/09/04 08:20:26;;;;;;;5.17;2.43;;;;;;;18.54;73.18;102351.75;4966172;28;20779;-75
2023/09/04 08:22:52;;;;;;;3.97;2.70;;;;;;;18.64;72.05;102348.63;4964725;28;20209;-75
2023/09/04 08:25:18;;;;;;;2.57;2.20;;;;;;;18.72;70.79;102352.25;4960064;28;20633;-75
2023/09/04 08:27:46;;;;;;;3.53;2.40;;;;;;;18.82;71.66;102357.94;4966813;28;20677;-74
2023/09/04 08:30:13;;;;;;;5.93;2.90;;;;;;;18.90;70.67;102348.22;4965483;28;20201;-75
2023/09/04 08:32:39;;;;;;;2.80;2.03;;;;;;;18.97;71.96;102351.88;4965015;28;20210;-75
2023/09/04 08:35:06;;;;;;;2.70;1.87;;;;;;;19.08;71.49;102352.19;4964846;28;20205;-75
2023/09/04 08:37:32;;;;;;;5.40;2.20;;;;;;;19.13;69.80;102344.69;4966302;28;20220;-75
2023/09/04 08:39:59;;;;;;;2.20;2.00;;;;;;;19.23;68.64;102354.16;4969298;28;20221;-75
2023/09/04 08:42:28;;;;;;;2.30;2.10;;;;;;;19.29;66.89;102350.13;4969292;28;20209;-74
2023/09/04 08:44:57;;;;;;;3.23;2.00;;;;;;;19.37;67.08;102343.84;4967749;28;20221;-74
2023/09/04 08:47:24;;;;;;;3.20;1.60;;;;;;;19.46;67.55;102342.56;4969098;28;20225;-75
2023/09/04 08:49:52;;;;;;;3.37;1.80;;;;;;;19.56;63.69;102349.34;4967854;28;20209;-75
2023/09/04 08:52:18;;;;;;;2.70;1.70;;;;;;;19.60;64.96;102337.59;4968330;28;20580;-75
2023/09/04 08:54:45;;;;;;;1.90;1.33;;;;;;;19.69;66.06;102345.47;4968880;28;20205;-75
2023/09/04 08:57:11;;;;;;;1.60;1.50;;;;;;;19.75;64.02;102344.09;4967085;28;20789;-75
2023/09/04 08:59:38;;;;;;;1.83;1.63;;;;;;;19.81;63.18;102342.72;4967710;28;20672;-75
2023/09/04 09:02:07;;;;;;;2.30;2.10;;;;;;;19.89;65.32;102336.41;4965476;28;20681;-75
2023/09/04 09:04:34;;;;;;;2.73;1.80;;;;;;;19.97;68.35;102330.88;4968477;28;20205;-75
2023/09/04 09:07:02;;;;;;;2.03;1.60;;;;;;;20.09;64.59;102340.78;4966186;28;20226;-75
2023/09/04 09:09:29;;;;;;;2.80;1.93;;;;;;;20.15;65.43;102342.84;4967504;28;20201;-75
2023/09/04 09:11:55;;;;;;;2.07;1.80;;;;;;;20.19;64.54;102340.25;4966928;28;20658;-75
2023/09/04 09:14:22;;;;;;;2.53;1.70;;;;;;;20.25;62.79;102336.97;4965631;28;20584;-75
2023/09/04 09:16:49;;;;;;;2.50;1.87;;;;;;;20.32;60.97;102334.44;4965758;28;20273;-75
2023/09/04 09:19:16;;;;;;;1.63;1.53;;;;;;;20.39;61.92;102342.63;4966408;28;20213;-75
2023/09/04 09:21:43;;;;;;;1.63;1.53;;;;;;;20.45;63.47;102335.91;4966413;28;20713;-75
2023/09/04 09:24:13;;;;;;;2.50;1.50;;;;;;;20.55;60.79;102329.19;4965572;28;20567;-75
2023/09/04 09:26:42;;;;;;;2.63;1.90;;;;;;;20.62;61.18;102337.41;4966672;28;20450;-75
2023/09/04 09:29:10;;;;;;;2.13;1.80;;;;;;;20.70;64.29;102329.16;4962692;28;20686;-74
2023/09/04 09:31:38;;;;;;;3.43;1.77;;;;;;;20.79;61.42;102327.03;4966654;28;20213;-75
2023/09/04 09:34:04;;;;;;;2.23;1.70;;;;;;;20.85;64.06;102324.88;4965258;28;20636;-75
2023/09/04 09:36:34;;;;;;;2.20;1.40;;;;;;;20.92;62.74;102327.72;4965613;28;20667;-75
2023/09/04 09:39:01;;;;;;;3.20;1.73;;;;;;;20.97;62.84;102328.22;4965008;28;20225;-75
2023/09/04 09:41:29;;;;;;;2.67;1.40;;;;;;;21.03;61.87;102337.56;4962223;28;20272;-74
2023/09/04 09:43:56;;;;;;;2.07;1.70;;;;;;;21.10;58.36;102331.53;4964281;28;20213;-75
2023/09/04 09:46:22;;;;;;;1.67;1.53;;;;;;;21.17;59.35;102331.69;4956338;28;20236;-75
2023/09/04 09:48:48;;;;;;;1.93;1.60;;;;;;;21.22;60.82;102334.84;4963630;28;20314;-75
2023/09/04 09:51:15;;;;;;;3.50;1.33;;;;;;;21.28;62.06;102333.44;4965318;28;20213;-75
2023/09/04 09:53:47;;;;;;;1.83;1.40;;;;;;;21.32;60.18;102339.66;4964840;28;20212;-74
2023/09/04 09:56:14;;;;;;;3.90;2.30;;;;;;;21.39;58.57;102337.13;4962038;28;20803;-75
2023/09/04 09:58:43;;;;;;;3.33;1.77;;;;;;;21.46;60.08;102339.91;4964260;28;20225;-75
2023/09/04 10:01:09;;;;;;;4.40;1.83;;;;;;;21.49;57.48;102336.53;4962919;28;20747;-75
2023/09/04 10:03:36;;;;;;;2.40;1.50;;;;;;;21.55;56.65;102337.00;4964242;28;20219;-75
2023/09/04 10:06:05;;;;;;;2.80;1.73;;;;;;;21.59;59.73;102341.34;4963028;28;20267;-75
2023/09/04 10:08:33;;;;;;;1.70;1.40;;;;;;;21.64;56.84;102341.03;4964353;28;20639;-75
2023/09/04 10:11:03;;;;;;;3.67;2.10;;;;;;;21.69;58.77;102345.38;4963599;28;20291;-75
2023/09/04 10:13:34;;;;;;;2.60;1.50;;;;;;;21.71;59.78;102343.88;4965262;28;20561;-75
2023/09/04 10:16:03;;;;;;;2.70;1.40;;;;;;;21.79;57.96;102334.78;4963791;28;20212;-75
2023/09/04 10:18:31;;;;;;;1.27;1.17;;;;;;;21.84;56.32;102339.84;4963859;28;20643;-75
2023/09/04 10:20:58;;;;;;;1.60;1.50;;;;;;;21.90;60.25;102343.81;4963810;28;20216;-75
2023/09/04 10:23:30;;;;;;;2.50;1.37;;;;;;;21.97;56.79;102345.81;4961934;28;20214;-75
2023/09/04 10:26:07;;;;;;;1.60;1.50;;;;;;;22.03;55.75;102347.06;4962890;28;20225;-75
2023/09/04 10:28:37;;;;;;;3.42;1.42;;;;;;;22.09;60.00;102337.59;4965007;28;20307;-75
2023/09/04 10:31:04;;;;;;;2.50;1.65;;;;;;;22.09;54.54;102346.41;4959142;28;20262;-75
2023/09/04 10:33:31;;;;;;;2.47;1.40;;;;;;;22.16;58.99;102345.75;4962587;28;21456;-75
2023/09/04 10:35:58;;;;;;;2.15;1.40;;;;;;;22.18;56.31;102330.81;4960641;28;20212;-75
2023/09/04 10:38:26;;;;;;;1.67;1.30;;;;;;;22.22;56.46;102322.78;4959895;28;20371;-74
2023/09/04 10:40:53;;;;;;;2.07;1.20;;;;;;;22.30;58.10;102321.75;4962966;28;20213;-75
2023/09/04 10:43:21;;;;;;;1.60;1.20;;;;;;;22.35;54.97;102324.16;4963235;28;21039;-75
2023/09/04 10:46:05;;;;;;;2.70;1.50;;;;;;;22.38;54.18;102326.09;4962226;28;21072;-75
2023/09/04 10:48:42;;;;;;;2.35;1.55;;;;;;;22.42;53.10;102321.53;4963063;28;20308;-75
2023/09/04 10:51:29;;;;;;;2.17;1.30;;;;;;;22.44;53.87;102328.16;4962643;28;20208;-75
2023/09/04 10:53:55;;;;;;;1.50;1.40;;;;;;;22.49;56.82;102318.97;4962235;28;20585;-75
2023/09/04 10:56:22;;;;;;;3.13;1.60;;;;;;;22.54;57.76;102316.75;4962515;28;20208;-75
2023/09/04 10:59:04;;;;;;;1.67;1.30;;;;;;;22.60;53.31;102317.97;4961186;28;21055;-75
2023/09/04 11:01:32;;;;;;;2.33;1.38;;;;;;;22.66;54.52;102313.81;4960622;28;20560;-75
2023/09/04 11:04:01;;;;;;;4.25;1.48;;;;;;;22.74;56.64;102298.53;4959173;28;20288;-75
2023/09/04 11:06:28;;;;;;;4.50;1.20;;;;;;;22.81;53.30;102301.34;4959990;28;20380;-75
2023/09/04 11:08:54;;;;;;;2.72;1.40;;;;;;;22.87;51.89;102297.94;4958900;28;20205;-75
2023/09/04 11:11:25;;;;;;;1.50;1.20;;;;;;;22.92;54.45;102292.22;4959703;28;21248;-75
2023/09/04 11:14:00;;;;;;;1.30;1.20;;;;;;;22.98;55.69;102292.69;4961659;28;20264;-75
2023/09/04 11:16:33;;;;;;;1.75;1.35;;;;;;;23.04;54.92;102285.81;4959983;28;20315;-75
2023/09/04 11:19:07;;;;;;;1.67;1.27;;;;;;;23.06;51.61;102286.22;4958609;28;20320;-75
2023/09/04 11:21:35;;;;;;;1.42;1.20;;;;;;;23.09;53.75;102285.50;4959239;28;20208;-75
2023/09/04 11:24:03;;;;;;;1.95;1.30;;;;;;;23.10;53.26;102279.72;4959726;28;20231;-75
2023/09/04 11:26:30;;;;;;;3.78;1.35;;;;;;;23.15;53.52;102282.09;4958469;28;20213;-75